Airfield :
LOGIN :

Register | Disclaimer

   EN    FR    IT 

 










Legend :    VFR   Marginal VFR   IFR   Intensive IFR   Very Intensive IFR
Visi :
Ceiling :
>= 8 km
>= 3000ft
5 to 8 km
1000 to 3000 ft
1500m to 5 km
500 to 1000 ft
800 to 1500m
200 to 500 ft
< 800m
< 200 ft
Symbols :   Thunderstorms  Fog  Heavy snow  Heavy precipitations  Wind > 20 kt
SIGMETs :     Misc.  Thunderstorms  Icing  Turbulence  Mountain Waves  Volcanic Ashes






- Airport Elevation : 287 ft


LFRL - Lanveoc Poulmic

CURRENT METAR :
  • 011330Z AUTO 27011KT 9999 SCT020 SCT027 BKN033 19/14 Q1015

EXPIRED METARs :
  • 011300Z AUTO 25011KT 9999 BKN018 BKN027 BKN050 18/14 Q1014
  • 011230Z AUTO 25010KT 220V280 9999 BKN020 BKN026 BKN050 19/13 Q1014
  • 011200Z AUTO 25010KT 210V270 9999 BKN022 OVC052 19/13 Q1014
  • 011130Z AUTO 28010KT 250V310 9999 FEW020 OVC048 18/13 Q1014
  • 011100Z AUTO 29009KT 250V310 9999 BKN017 BKN027 OVC047 18/14 Q1014

Expired Forecast.



MET'MAP, your aeronautical weather chart ! - Copyright ORBIFLY December 2007 - Disclaimer

ORBIFLY MET'MAP TEAM :

Programming & Development : Alexandra Zaïnal
Concept & original design : Baudouin d'Aumeries
Assistance for programming : Marc-Olivier Méhu
Technical & hardware support : Manuel Goepfert

Contact : metmap@orbifly.com




SOURCES & CREDITS :

   NOAA